Time;durP1;ratioP1;P1;durP2;ratioP2;P2;SDS_P1;SDS_P2;PMS_P1;PMS_P2;Temp;Humidity;BMP_temperature;BMP_pressure;BME280_temperature;BME280_humidity;BME280_pressure;Samples;Min_cycle;Max_cycle;Signal;HPM_P1;HPM_P2
2022/05/21 00:00:26;;;;;;;14.07;8.75;;;;;;;13.34;74.45;101932.25;5010117;28;20041;-77
2022/05/21 00:02:53;;;;;;;14.88;8.05;;;;;;;13.42;74.72;101935.09;5013690;28;20481;-77
2022/05/21 00:05:20;;;;;;;16.58;8.82;;;;;;;13.37;74.56;101937.59;5011450;28;20037;-76
2022/05/21 00:07:46;;;;;;;13.93;8.68;;;;;;;13.30;74.49;101938.22;5013475;28;20302;-77
2022/05/21 00:10:13;;;;;;;15.05;8.27;;;;;;;13.27;74.44;101938.13;5035519;28;20037;-77
2022/05/21 00:12:39;;;;;;;16.15;8.20;;;;;;;13.30;74.51;101940.81;5035352;28;20020;-76
2022/05/21 00:15:05;;;;;;;14.15;7.90;;;;;;;13.28;74.58;101936.38;5039625;28;20036;-76
2022/05/21 00:17:30;;;;;;;13.82;7.78;;;;;;;13.26;74.47;101944.19;5030963;28;20040;-76
2022/05/21 00:19:55;;;;;;;14.77;8.18;;;;;;;13.28;74.59;101947.75;5034048;28;20021;-76
2022/05/21 00:22:21;;;;;;;14.00;7.35;;;;;;;13.26;74.65;101940.69;5030458;28;20096;-75
2022/05/21 00:24:46;;;;;;;15.45;7.50;;;;;;;13.22;74.73;101934.47;5035884;28;20056;-76
2022/05/21 00:27:12;;;;;;;13.25;7.10;;;;;;;13.26;74.96;101946.81;5048454;28;20044;-76
2022/05/21 00:29:37;;;;;;;14.77;7.22;;;;;;;13.20;74.61;101944.00;5030157;28;20029;-77
2022/05/21 00:32:03;;;;;;;11.90;7.18;;;;;;;13.21;74.70;101940.56;5030606;28;20026;-76
2022/05/21 00:34:29;;;;;;;11.15;6.53;;;;;;;13.19;74.63;101940.50;5031971;28;20400;-76
2022/05/21 00:36:55;;;;;;;11.43;6.95;;;;;;;13.18;74.77;101940.47;5030364;28;20450;-76
2022/05/21 00:39:20;;;;;;;12.05;7.03;;;;;;;13.15;74.68;101937.72;5030169;28;20480;-76
2022/05/21 00:41:45;;;;;;;11.68;6.57;;;;;;;13.11;74.92;101938.50;5036071;28;20507;-76
2022/05/21 00:44:11;;;;;;;11.70;6.47;;;;;;;13.08;75.29;101939.28;5023320;28;20116;-76
2022/05/21 00:46:39;;;;;;;12.65;6.70;;;;;;;13.11;74.92;101941.13;5029742;28;20053;-78
2022/05/21 00:49:16;;;;;;;11.38;6.28;;;;;;;13.11;75.16;101943.75;5030225;28;20037;-76
2022/05/21 00:51:47;;;;;;;12.00;5.97;;;;;;;13.10;75.55;101942.84;5029897;28;20021;-76
2022/05/21 00:54:14;;;;;;;9.68;5.70;;;;;;;13.17;75.43;101946.53;5030163;28;20028;-76
2022/05/21 00:56:46;;;;;;;13.98;5.95;;;;;;;13.14;75.41;101946.44;5031034;28;20053;-76
2022/05/21 01:01:59;;;;;;;10.70;5.05;;;;;;;13.16;75.25;101949.97;5032445;28;20151;-77
2022/05/21 01:04:25;;;;;;;13.18;5.13;;;;;;;13.17;75.37;101950.03;5030193;28;20484;-76
2022/05/21 01:06:52;;;;;;;13.13;5.30;;;;;;;13.16;75.20;101948.25;5030100;28;20041;-76
2022/05/21 01:09:18;;;;;;;12.05;5.53;;;;;;;13.19;75.43;101947.47;5044486;28;20046;-76
2022/05/21 01:11:43;;;;;;;8.60;4.95;;;;;;;13.19;75.56;101947.47;5017252;28;20032;-77
2022/05/21 01:14:10;;;;;;;8.45;4.65;;;;;;;13.16;75.23;101949.97;5034458;28;20468;-76
2022/05/21 01:16:37;;;;;;;10.13;5.25;;;;;;;13.15;75.32;101937.72;5042643;28;20025;-76
2022/05/21 01:19:09;;;;;;;8.88;4.57;;;;;;;13.15;75.47;101940.34;5029883;28;20033;-76
2022/05/21 01:21:36;;;;;;;11.00;4.68;;;;;;;13.11;75.65;101936.75;5036541;28;20061;-76
2022/05/21 01:24:03;;;;;;;9.25;4.90;;;;;;;13.08;75.99;101948.84;5035139;28;20548;-76
2022/05/21 01:26:29;;;;;;;12.32;4.95;;;;;;;13.12;75.99;101942.88;5029397;28;20033;-76
2022/05/21 01:28:56;;;;;;;12.18;4.72;;;;;;;13.11;76.01;101934.16;5029801;28;20017;-77
2022/05/21 01:31:21;;;;;;;10.60;4.80;;;;;;;13.11;76.42;101935.88;5035143;28;20448;-76
2022/05/21 01:33:47;;;;;;;8.77;4.50;;;;;;;13.08;76.00;101939.28;5030576;28;20107;-77
2022/05/21 01:36:14;;;;;;;7.40;3.97;;;;;;;13.11;75.88;101938.50;5032470;28;20538;-75
2022/05/21 01:38:41;;;;;;;9.18;4.35;;;;;;;13.14;75.92;101942.09;5029904;28;20120;-78
2022/05/21 01:41:10;;;;;;;9.48;4.10;;;;;;;13.09;75.89;101927.97;5032801;28;20033;-76
2022/05/21 01:46:22;;;;;;;10.25;4.47;;;;;;;13.04;76.29;101933.06;5036264;28;20282;-76
2022/05/21 01:48:47;;;;;;;12.50;4.30;;;;;;;13.07;76.12;101936.63;5046076;28;20025;-76
2022/05/21 01:51:13;;;;;;;13.07;5.60;;;;;;;13.05;76.31;101929.63;5032750;28;20036;-77
2022/05/21 01:53:39;;;;;;;9.57;4.53;;;;;;;13.11;76.12;101928.91;5046431;28;20024;-76
2022/05/21 01:56:06;;;;;;;9.82;4.82;;;;;;;13.11;76.27;101928.91;5033261;28;20017;-76
2022/05/21 01:58:32;;;;;;;9.02;4.47;;;;;;;13.15;76.10;101935.13;5036105;28;20108;-76
2022/05/21 02:00:58;;;;;;;10.27;4.68;;;;;;;13.13;76.15;101931.56;5038005;28;20111;-76
2022/05/21 02:03:24;;;;;;;10.40;5.07;;;;;;;13.14;75.83;101938.59;5015837;28;20021;-77
2022/05/21 02:05:50;;;;;;;11.60;4.95;;;;;;;13.14;76.15;101939.47;5032503;28;20036;-77
2022/05/21 02:08:16;;;;;;;12.73;5.30;;;;;;;13.19;76.01;101930.06;5031903;28;20042;-77
2022/05/21 02:10:43;;;;;;;11.43;5.30;;;;;;;13.17;76.49;101936.94;5033117;28;20029;-77
2022/05/21 02:13:14;;;;;;;11.68;5.53;;;;;;;13.17;76.43;101941.31;5037149;28;20107;-77
2022/05/21 02:15:40;;;;;;;10.90;5.60;;;;;;;13.19;76.15;101939.59;5015204;28;20104;-78
2022/05/21 02:18:05;;;;;;;8.88;4.72;;;;;;;13.24;75.86;101945.88;5034006;28;20038;-77
2022/05/21 02:20:30;;;;;;;13.43;5.57;;;;;;;13.18;76.14;101943.97;5039902;28;20032;-77
2022/05/21 02:22:56;;;;;;;11.57;5.50;;;;;;;13.20;76.13;101941.41;5034885;28;20064;-76
2022/05/21 02:25:21;;;;;;;11.13;5.07;;;;;;;13.17;75.97;101944.78;5032860;28;20473;-77
2022/05/21 02:27:46;;;;;;;12.25;4.93;;;;;;;13.16;76.39;101947.38;5031775;28;20083;-76
2022/05/21 02:30:13;;;;;;;10.57;5.00;;;;;;;13.17;76.37;101943.91;5033616;28;20017;-77
2022/05/21 02:32:38;;;;;;;12.85;4.95;;;;;;;13.15;76.80;101940.34;5032452;28;20029;-76
2022/05/21 02:35:04;;;;;;;15.65;5.60;;;;;;;13.23;76.14;101946.72;5035495;28;20040;-77
2022/05/21 02:40:13;;;;;;;12.45;4.80;;;;;;;13.18;76.66;101936.13;5032289;28;20083;-76
2022/05/21 02:42:45;;;;;;;12.52;5.20;;;;;;;13.21;76.72;101937.94;5044187;28;20025;-77
2022/05/21 02:45:20;;;;;;;11.48;5.13;;;;;;;13.21;76.38;101937.94;5014776;28;20569;-76
2022/05/21 02:47:46;;;;;;;11.07;5.20;;;;;;;13.17;76.41;101938.69;5031756;28;20030;-72
2022/05/21 02:50:13;;;;;;;13.93;5.00;;;;;;;13.14;76.68;101935.97;5031236;28;20496;-72
2022/05/21 02:52:38;;;;;;;13.48;5.05;;;;;;;13.18;76.43;101941.34;5031605;28;20040;-72
2022/05/21 02:55:05;;;;;;;12.38;5.30;;;;;;;13.16;76.78;101939.53;5041029;28;20021;-72
2022/05/21 02:57:31;;;;;;;14.82;5.10;;;;;;;13.12;77.12;101940.25;5031584;28;20039;-72
2022/05/21 03:00:00;;;;;;;10.98;5.00;;;;;;;13.08;76.95;101939.28;5032070;28;20025;-72
2022/05/21 03:02:25;;;;;;;14.10;5.30;;;;;;;13.11;77.06;101938.50;5045541;28;20040;-72
2022/05/21 03:04:51;;;;;;;11.23;5.03;;;;;;;13.11;77.05;101938.50;5045551;28;20025;-72
2022/05/21 03:07:16;;;;;;;12.98;5.13;;;;;;;13.12;77.13;101940.25;5032335;28;20033;-73
2022/05/21 03:12:45;;;;;;;13.90;5.35;;;;;;;13.16;76.73;101943.00;4968177;28;20053;-72
2022/05/21 03:15:10;;;;;;;13.55;5.32;;;;;;;13.17;76.79;101941.31;4964481;28;20035;-73
2022/05/21 03:17:35;;;;;;;12.50;5.55;;;;;;;13.17;76.32;101943.91;4986944;28;20519;-77
2022/05/21 03:20:01;;;;;;;12.38;5.05;;;;;;;13.14;76.68;101943.84;5021413;28;20116;-77
2022/05/21 03:22:27;;;;;;;11.65;4.97;;;;;;;13.16;77.25;101939.53;5031209;28;20091;-76
2022/05/21 03:24:53;;;;;;;15.68;5.55;;;;;;;13.12;76.87;101943.78;5034715;28;20021;-76
2022/05/21 03:27:18;;;;;;;13.52;6.05;;;;;;;13.17;76.30;101939.56;5297432;22;20049;-77
2022/05/21 03:29:43;;;;;;;14.95;6.65;;;;;;;13.12;77.11;101937.63;4985711;28;20448;-76
2022/05/21 03:32:08;;;;;;;13.15;5.00;;;;;;;13.11;77.35;101935.88;4991012;28;20041;-77
2022/05/21 03:34:36;;;;;;;12.13;5.93;;;;;;;13.08;76.89;101941.91;4983736;28;20034;-76
2022/05/21 03:37:01;;;;;;;12.23;5.57;;;;;;;13.07;77.25;101939.25;4986550;28;20034;-76
2022/05/21 03:39:28;;;;;;;13.73;6.00;;;;;;;13.08;77.49;101951.47;4981202;28;20394;-76
2022/05/21 03:41:54;;;;;;;14.50;6.43;;;;;;;13.04;77.81;101943.53;4972528;28;20494;-76
2022/05/21 03:44:20;;;;;;;12.35;6.22;;;;;;;13.07;77.65;101947.97;4973054;28;20031;-76
2022/05/21 03:46:45;;;;;;;16.42;6.38;;;;;;;13.09;77.33;101946.28;4972470;28;20030;-77
2022/05/21 03:49:10;;;;;;;15.57;6.40;;;;;;;13.11;77.20;101934.16;4976213;28;20022;-78
2022/05/21 03:51:37;;;;;;;14.23;6.32;;;;;;;13.13;76.81;101947.28;4972415;28;20034;-77
2022/05/21 03:54:03;;;;;;;16.80;6.35;;;;;;;13.12;77.27;101949.03;4978485;28;20121;-75
2022/05/21 03:56:29;;;;;;;14.77;6.10;;;;;;;13.13;77.28;101953.38;4972376;28;20162;-76
2022/05/21 03:58:54;;;;;;;15.02;6.97;;;;;;;13.13;76.64;101958.63;4982012;28;20081;-76
2022/05/21 04:01:19;;;;;;;18.50;6.55;;;;;;;13.11;77.13;101957.69;4981985;28;20133;-76
2022/05/21 04:03:45;;;;;;;13.70;6.70;;;;;;;13.16;76.83;101957.84;4970917;28;20030;-76
2022/05/21 04:06:11;;;;;;;14.57;6.47;;;;;;;13.09;77.10;101959.38;4982722;28;20132;-78
2022/05/21 04:08:37;;;;;;;16.27;6.95;;;;;;;13.04;77.56;101951.38;4986455;28;20536;-77
2022/05/21 04:11:03;;;;;;;16.02;6.50;;;;;;;13.03;77.68;101962.72;4982870;28;20018;-76
2022/05/21 04:13:28;;;;;;;17.00;6.43;;;;;;;13.03;77.66;101962.72;4966838;28;20035;-76
2022/05/21 04:15:53;;;;;;;13.88;6.15;;;;;;;13.04;78.05;101964.47;4975339;28;20488;-77
2022/05/21 04:18:19;;;;;;;14.05;6.35;;;;;;;13.03;77.97;101962.72;4991080;28;20045;-76
2022/05/21 04:20:45;;;;;;;16.45;6.43;;;;;;;13.01;78.06;101963.50;4983713;28;20035;-77
2022/05/21 04:23:11;;;;;;;15.32;6.30;;;;;;;12.99;77.92;101963.44;4974764;28;20095;-77
2022/05/21 04:25:36;;;;;;;16.58;6.63;;;;;;;12.97;78.04;101975.56;4972013;28;20065;-77
2022/05/21 04:28:02;;;;;;;16.98;6.75;;;;;;;12.99;78.09;101971.28;4988577;28;20081;-76
2022/05/21 04:30:29;;;;;;;16.35;6.85;;;;;;;12.97;78.41;101980.81;4989666;28;20157;-77
2022/05/21 04:32:56;;;;;;;14.55;6.40;;;;;;;13.00;78.06;101982.63;4991189;28;20520;-76
2022/05/21 04:35:23;;;;;;;17.10;7.20;;;;;;;12.99;78.24;101981.75;4990277;28;20103;-77
2022/05/21 04:37:49;;;;;;;14.25;6.22;;;;;;;13.02;78.01;101983.56;4989291;28;20586;-76
2022/05/21 04:40:23;;;;;;;18.88;7.03;;;;;;;13.00;78.03;101988.75;4990943;28;20034;-76
2022/05/21 04:42:49;;;;;;;16.75;7.07;;;;;;;12.97;78.42;101988.66;4990357;28;20031;-77
2022/05/21 04:45:15;;;;;;;16.95;6.53;;;;;;;12.97;79.02;101991.25;4985576;28;20031;-76
2022/05/21 04:47:41;;;;;;;15.73;6.72;;;;;;;12.99;78.49;101992.22;4991079;28;20029;-76
2022/05/21 04:50:08;;;;;;;18.98;6.93;;;;;;;13.00;78.54;101990.47;4990309;28;20030;-76
2022/05/21 04:52:34;;;;;;;15.85;7.13;;;;;;;12.99;79.11;101997.47;4990953;28;20049;-76
2022/05/21 04:55:06;;;;;;;18.45;6.78;;;;;;;13.02;77.45;101989.69;4990209;28;20092;-77
2022/05/21 04:57:32;;;;;;;18.90;8.15;;;;;;;13.01;79.12;101990.53;4990779;28;20165;-77
2022/05/21 04:59:57;;;;;;;18.75;7.65;;;;;;;13.02;78.93;101992.31;4989659;28;20117;-77
2022/05/21 05:02:22;;;;;;;17.83;7.60;;;;;;;13.05;77.96;101999.38;4989428;28;20034;-77
2022/05/21 05:04:47;;;;;;;19.95;8.27;;;;;;;13.05;78.36;101997.63;4990928;28;20050;-77
2022/05/21 05:07:13;;;;;;;15.45;7.85;;;;;;;13.04;78.69;101998.47;4969187;28;20506;-77
2022/05/21 05:09:40;;;;;;;19.50;8.32;;;;;;;13.06;78.61;101998.53;4987396;28;20026;-77
2022/05/21 05:12:06;;;;;;;17.27;7.95;;;;;;;13.10;77.60;101989.94;4990385;28;20030;-77
2022/05/21 05:14:32;;;;;;;18.48;8.65;;;;;;;13.10;77.90;102002.13;4992350;28;20486;-78
2022/05/21 05:16:57;;;;;;;18.48;8.57;;;;;;;13.12;77.44;101996.13;4992882;28;20234;-77
2022/05/21 05:19:22;;;;;;;20.58;9.13;;;;;;;13.12;78.81;102006.59;4993838;28;20113;-77
2022/05/21 05:21:48;;;;;;;22.23;9.73;;;;;;;13.14;78.60;102012.75;4973577;28;20031;-77
2022/05/21 05:24:13;;;;;;;20.70;9.15;;;;;;;13.16;78.46;102018.03;4987881;28;20026;-77
2022/05/21 05:26:38;;;;;;;23.52;10.38;;;;;;;13.16;78.96;102015.41;4993728;28;20038;-76
2022/05/21 05:29:05;;;;;;;23.38;10.27;;;;;;;13.16;78.93;102016.28;4980935;28;20074;-76
2022/05/21 05:31:31;;;;;;;21.17;11.30;;;;;;;13.15;78.71;102016.25;4982596;28;20027;-77
2022/05/21 05:33:57;;;;;;;25.13;10.57;;;;;;;13.16;78.61;102015.41;4990228;28;20031;-76
2022/05/21 05:36:22;;;;;;;20.60;9.77;;;;;;;13.19;78.45;102025.97;4993607;28;20041;-77
2022/05/21 05:38:48;;;;;;;24.63;11.23;;;;;;;13.17;78.90;102025.03;4994094;28;20031;-77
2022/05/21 05:41:13;;;;;;;24.88;11.05;;;;;;;13.17;79.06;102030.28;4993614;28;20054;-77
2022/05/21 05:43:38;;;;;;;24.05;11.20;;;;;;;13.14;79.19;102022.34;4992421;28;20049;-77
2022/05/21 05:46:03;;;;;;;23.38;11.00;;;;;;;13.16;79.48;102033.72;4993036;28;20065;-76
2022/05/21 05:48:29;;;;;;;25.10;11.77;;;;;;;13.18;78.47;102029.44;4993686;28;20022;-77
2022/05/21 05:50:56;;;;;;;32.00;11.85;;;;;;;13.15;79.68;102034.56;4994078;28;20088;-76
2022/05/21 05:53:22;;;;;;;27.40;11.95;;;;;;;13.15;79.15;102034.56;4992275;28;20030;-76
2022/05/21 05:55:48;;;;;;;27.67;12.55;;;;;;;13.15;79.60;102037.19;4993315;28;20033;-77
2022/05/21 06:00:57;;;;;;;23.45;10.75;;;;;;;13.22;77.67;102031.31;4993103;28;20053;-76
2022/05/21 06:03:23;;;;;;;23.67;11.80;;;;;;;13.25;79.76;102039.25;4992459;28;20105;-77
2022/05/21 06:05:51;;;;;;;26.48;12.45;;;;;;;13.26;79.30;102042.78;4982400;28;20036;-77
2022/05/21 06:08:17;;;;;;;23.85;12.32;;;;;;;13.26;78.09;102041.03;4993858;28;20026;-78
2022/05/21 06:10:44;;;;;;;26.30;11.75;;;;;;;13.25;79.13;102044.47;4993115;28;20084;-77
2022/05/21 06:13:10;;;;;;;28.10;13.07;;;;;;;13.21;79.41;102043.50;4986550;28;20049;-77
2022/05/21 06:15:37;;;;;;;25.60;12.45;;;;;;;13.21;79.43;102040.00;4991953;28;20030;-76
2022/05/21 06:18:17;;;;;;;24.98;12.57;;;;;;;13.23;79.51;102043.56;4992293;28;20645;-76
2022/05/21 06:20:44;;;;;;;25.75;13.35;;;;;;;13.23;79.67;102044.44;4991947;28;20097;-76
2022/05/21 06:23:10;;;;;;;29.70;14.50;;;;;;;13.25;79.95;102046.22;4984472;28;20054;-76
2022/05/21 06:25:35;;;;;;;27.67;13.25;;;;;;;13.25;79.74;102049.72;4972107;28;20023;-77
2022/05/21 06:28:03;;;;;;;28.42;13.40;;;;;;;13.29;79.63;102059.44;4989985;28;20101;-77
2022/05/21 06:30:30;;;;;;;28.80;14.65;;;;;;;13.30;79.59;102050.75;4993157;28;20026;-77
2022/05/21 06:32:56;;;;;;;28.05;13.23;;;;;;;13.35;80.14;102053.56;4991374;28;20088;-78
2022/05/21 06:35:23;;;;;;;29.55;14.38;;;;;;;13.41;80.49;102063.34;4992564;28;20030;-77
2022/05/21 06:37:48;;;;;;;30.92;13.48;;;;;;;13.44;79.28;102063.44;4991797;28;20069;-78
2022/05/21 06:40:15;;;;;;;31.92;14.57;;;;;;;13.51;78.70;102063.69;4975600;28;20046;-76
2022/05/21 06:42:41;;;;;;;31.77;14.95;;;;;;;13.55;79.08;102065.53;4992381;28;20097;-78
2022/05/21 06:45:07;;;;;;;27.70;13.65;;;;;;;13.60;78.87;102070.94;4992309;28;20026;-78
2022/05/21 06:47:33;;;;;;;32.25;14.15;;;;;;;13.62;78.62;102074.47;4992983;28;20029;-76
2022/05/21 06:49:59;;;;;;;30.05;14.57;;;;;;;13.65;79.38;102074.56;4991941;28;20027;-77
2022/05/21 06:52:26;;;;;;;34.17;15.40;;;;;;;13.71;79.81;102080.00;4989415;28;20028;-77
2022/05/21 06:54:52;;;;;;;30.73;14.55;;;;;;;13.77;79.52;102065.31;4989868;28;20077;-78
2022/05/21 06:57:18;;;;;;;30.00;14.30;;;;;;;13.83;79.49;102063.78;4984870;28;20474;-78
2022/05/21 06:59:44;;;;;;;32.20;14.63;;;;;;;13.87;79.23;102064.75;4990588;28;20030;-77
2022/05/21 07:02:10;;;;;;;31.95;14.52;;;;;;;13.93;78.59;102075.41;4992586;28;20076;-78
2022/05/21 07:07:43;;;;;;;28.35;13.75;;;;;;;13.95;78.06;102076.34;4989127;28;20593;-79
2022/05/21 07:10:10;;;;;;;;;;;;;;;14.02;77.95;102080.94;4985324;28;20414;-78
2022/05/21 07:12:36;;;;;;;28.70;13.25;;;;;;;13.99;79.21;102080.84;4965213;28;19960;-77
2022/05/21 07:15:04;;;;;;;29.85;14.05;;;;;;;14.00;78.51;102081.72;4973922;28;20401;-78
2022/05/21 07:17:30;;;;;;;30.25;14.63;;;;;;;14.00;78.31;102086.97;4981737;28;20101;-77
2022/05/21 07:19:55;;;;;;;28.88;14.18;;;;;;;14.00;78.59;102086.97;4982332;28;20721;-77
2022/05/21 07:22:21;;;;;;;31.38;14.95;;;;;;;14.02;77.35;102100.97;4985962;28;20038;-73
2022/05/21 07:24:46;;;;;;;30.55;15.20;;;;;;;14.01;77.92;102094.88;4985717;28;20537;-74
2022/05/21 07:27:12;;;;;;;34.65;15.90;;;;;;;14.01;78.03;102100.09;4986390;28;20163;-74
2022/05/21 07:29:41;;;;;;;26.40;14.15;;;;;;;14.01;78.09;102107.97;4990035;28;20069;-74
2022/05/21 07:32:16;;;;;;;32.83;15.52;;;;;;;14.05;78.39;102112.47;4975224;28;20475;-73
2022/05/21 07:34:41;;;;;;;39.55;15.77;;;;;;;14.09;78.03;102101.22;4991425;28;20030;-74
2022/05/21 07:37:06;;;;;;;27.85;14.80;;;;;;;14.14;78.41;102106.59;4986135;28;20501;-73
2022/05/21 07:39:31;;;;;;;32.75;14.75;;;;;;;14.19;78.27;102104.09;4990373;28;20018;-74
2022/05/21 07:41:57;;;;;;;32.45;15.77;;;;;;;14.24;78.98;102107.75;4971948;28;20038;-73
2022/05/21 07:44:22;;;;;;;34.72;15.60;;;;;;;14.33;78.88;102108.00;4976065;28;20027;-73
2022/05/21 07:46:48;;;;;;;27.80;14.32;;;;;;;14.38;77.07;102106.44;4977267;28;20054;-74
2022/05/21 07:49:13;;;;;;;34.08;15.25;;;;;;;14.43;77.97;102099.56;4989906;28;20026;-73
2022/05/21 07:51:38;;;;;;;33.58;15.30;;;;;;;14.49;77.81;102101.47;4989330;28;20109;-73
2022/05/21 07:54:03;;;;;;;30.00;15.10;;;;;;;14.58;77.73;102108.69;4969948;28;20030;-73
2022/05/21 07:56:30;;;;;;;30.17;14.70;;;;;;;14.66;76.32;102115.09;4990744;28;20026;-72
2022/05/21 07:58:55;;;;;;;29.70;14.48;;;;;;;14.72;76.43;102104.75;4991551;28;20030;-72
2022/05/21 08:01:22;;;;;;;28.40;14.02;;;;;;;14.80;76.67;102109.31;4990351;28;20038;-74
2022/05/21 08:03:47;;;;;;;33.58;13.85;;;;;;;14.85;75.15;102108.59;4991229;28;20025;-73
2022/05/21 08:06:13;;;;;;;28.58;14.07;;;;;;;14.88;74.75;102113.03;4991454;28;20026;-72
2022/05/21 08:08:38;;;;;;;30.40;13.80;;;;;;;14.87;73.42;102117.38;4990397;28;20026;-73
2022/05/21 08:11:03;;;;;;;23.13;11.60;;;;;;;14.85;73.57;102126.97;4990440;28;20056;-72
2022/05/21 08:13:29;;;;;;;26.80;11.68;;;;;;;14.83;72.90;102126.03;4990431;28;20038;-73
2022/05/21 08:15:54;;;;;;;21.23;11.32;;;;;;;14.84;73.65;102127.78;4991410;28;20133;-73
2022/05/21 08:18:19;;;;;;;27.15;11.85;;;;;;;14.83;73.76;102120.78;4990649;28;20022;-74
2022/05/21 08:20:45;;;;;;;19.85;10.50;;;;;;;14.86;73.61;102126.13;4990466;28;20402;-73
2022/05/21 08:28:45;;;;;;;23.63;10.82;;;;;;;14.91;73.30;102127.13;4991265;28;20050;-74
2022/05/21 08:31:10;;;;;;;25.35;12.07;;;;;;;14.97;74.35;102139.50;4990239;28;20429;-74
2022/05/21 08:33:35;;;;;;;26.42;13.00;;;;;;;15.00;74.21;102134.34;4987868;28;20548;-72
2022/05/21 08:36:01;;;;;;;27.10;12.65;;;;;;;15.03;74.41;102134.41;4989505;28;20026;-73
2022/05/21 08:38:26;;;;;;;23.75;11.93;;;;;;;15.04;72.63;102133.56;4979315;28;20561;-73
2022/05/21 08:40:57;;;;;;;21.15;11.65;;;;;;;15.08;73.42;102130.19;4988527;28;20034;-73
2022/05/21 08:43:49;;;;;;;26.85;11.63;;;;;;;15.16;73.78;102137.38;4989935;28;20084;-74
2022/05/21 08:46:43;;;;;;;24.10;12.07;;;;;;;15.21;74.94;102141.88;4990226;28;20109;-73
2022/05/21 08:49:33;;;;;;;22.73;12.43;;;;;;;15.19;72.63;102137.44;4991860;28;20611;-73
2022/05/21 08:52:29;;;;;;;24.77;11.50;;;;;;;15.23;72.88;102136.69;4996034;28;20026;-73
2022/05/21 08:54:58;;;;;;;21.30;10.30;;;;;;;15.23;71.71;102136.69;4990860;28;20495;-73
2022/05/21 08:57:41;;;;;;;23.67;11.52;;;;;;;15.25;72.25;102135.88;4994446;28;20099;-72
2022/05/21 09:00:20;;;;;;;26.13;12.77;;;;;;;15.28;71.67;102119.31;4995037;28;20049;-73
2022/05/21 09:02:46;;;;;;;27.17;14.65;;;;;;;15.38;73.24;102121.31;4994091;28;20057;-72
2022/05/21 09:05:13;;;;;;;27.40;14.30;;;;;;;15.46;72.77;102119.72;4997099;28;20088;-73
2022/05/21 09:07:54;;;;;;;29.33;14.65;;;;;;;15.57;73.17;102114.75;4997759;28;20026;-73
2022/05/21 09:10:36;;;;;;;27.63;13.32;;;;;;;15.64;72.46;102116.66;4994809;28;20386;-71
2022/05/21 09:13:17;;;;;;;25.88;12.75;;;;;;;15.73;72.64;102112.44;4997294;28;20030;-71
2022/05/21 09:18:29;;;;;;;21.48;10.65;;;;;;;15.88;68.79;102120.72;4995235;28;20041;-74
2022/05/21 09:21:08;;;;;;;25.70;11.75;;;;;;;15.94;70.75;102105.09;4995726;28;20034;-72
2022/05/21 09:23:57;;;;;;;22.88;12.05;;;;;;;16.03;71.39;102109.66;4995672;28;20036;-73
2022/05/21 09:26:30;;;;;;;26.70;13.13;;;;;;;16.06;69.85;102111.47;4980202;28;20029;-73
2022/05/21 09:29:21;;;;;;;23.50;13.40;;;;;;;16.05;69.53;102105.31;4988992;28;20054;-73
2022/05/21 09:31:47;;;;;;;19.75;11.52;;;;;;;16.02;68.59;102104.34;4995620;28;20575;-72
2022/05/21 09:34:24;;;;;;;25.52;11.65;;;;;;;15.93;67.35;102107.69;4997125;28;20066;-73
2022/05/21 09:36:50;;;;;;;20.48;10.63;;;;;;;15.86;67.45;102117.19;4996336;28;20038;-72
2022/05/21 09:39:33;;;;;;;24.73;11.90;;;;;;;15.82;68.98;102123.22;4995295;28;20038;-73
2022/05/21 09:45:22;;;;;;;22.92;12.00;;;;;;;15.72;68.04;102119.47;4995409;28;20049;-72
2022/05/21 09:48:05;;;;;;;23.17;11.82;;;;;;;15.77;70.41;102125.72;4977353;28;20029;-73
2022/05/21 09:50:53;;;;;;;23.85;11.60;;;;;;;15.81;70.53;102122.34;4983308;28;20084;-73
2022/05/21 09:53:36;;;;;;;20.80;10.73;;;;;;;15.82;69.18;102117.97;4996802;28;20394;-73
2022/05/21 09:56:19;;;;;;;20.10;10.18;;;;;;;15.82;68.58;102123.22;4991242;28;20540;-72
2022/05/21 09:58:46;;;;;;;19.80;9.38;;;;;;;15.78;68.25;102132.75;4995772;28;20154;-73
2022/05/21 10:01:17;;;;;;;17.15;9.27;;;;;;;15.76;68.95;102123.94;4991947;28;20125;-72
2022/05/21 10:03:53;;;;;;;18.25;9.30;;;;;;;15.75;68.46;102126.53;4984052;28;20022;-73
2022/05/21 10:06:27;;;;;;;19.20;9.60;;;;;;;15.74;68.22;102130.00;4984196;28;20029;-72
2022/05/21 10:11:57;;;;;;;20.45;9.13;;;;;;;15.81;69.88;102134.59;4992430;28;20069;-73
2022/05/21 10:14:30;;;;;;;20.50;9.40;;;;;;;15.91;72.21;102127.81;4992519;28;20026;-73
2022/05/21 10:17:04;;;;;;;22.17;9.63;;;;;;;15.94;70.11;102127.88;4993623;28;20036;-73
2022/05/21 10:19:49;;;;;;;22.92;11.35;;;;;;;15.96;69.47;102136.66;4992608;28;20418;-73
2022/05/21 10:22:41;;;;;;;18.77;9.18;;;;;;;15.94;68.44;102136.63;4991921;28;20034;-74
2022/05/21 10:25:23;;;;;;;22.63;9.07;;;;;;;15.95;68.96;102138.41;4988646;28;20134;-73
2022/05/21 10:28:26;;;;;;;19.48;9.25;;;;;;;15.97;69.37;102130.56;4958877;28;20130;-73
2022/05/21 10:31:04;;;;;;;19.52;8.43;;;;;;;15.97;67.44;102131.47;4992207;28;20045;-73
2022/05/21 10:33:57;;;;;;;20.40;8.40;;;;;;;15.97;67.55;102127.94;4993222;28;20022;-73
2022/05/21 10:36:48;;;;;;;18.50;11.30;;;;;;;15.98;68.91;102132.34;4991431;28;20062;-73
2022/05/21 10:39:31;;;;;;;25.10;13.75;;;;;;;15.97;69.19;102139.34;4991965;28;20039;-73
2022/05/21 10:42:03;;;;;;;28.17;16.40;;;;;;;15.99;69.21;102142.88;4990722;28;20030;-72
2022/05/21 10:44:49;;;;;;;23.92;14.55;;;;;;;16.03;69.49;102141.19;4992568;28;20033;-73
2022/05/21 10:47:33;;;;;;;25.85;12.77;;;;;;;16.14;71.01;102137.06;4992834;28;20060;-72
2022/05/21 10:50:28;;;;;;;23.25;10.57;;;;;;;16.28;69.90;102128.56;4989214;28;20108;-73
2022/05/21 10:53:20;;;;;;;22.00;10.43;;;;;;;16.38;68.53;102130.56;4992299;28;20026;-72
2022/05/21 10:55:54;;;;;;;17.98;10.50;;;;;;;16.40;67.25;102126.19;4986960;28;20030;-73
2022/05/21 10:58:46;;;;;;;22.00;11.05;;;;;;;16.40;67.55;102142.00;4991812;28;20469;-74
2022/05/21 11:01:21;;;;;;;19.73;8.77;;;;;;;16.34;66.20;102144.50;4986429;28;20329;-73
2022/05/21 11:04:07;;;;;;;16.65;7.80;;;;;;;16.33;64.97;102140.09;4992472;28;20026;-73
2022/05/21 11:06:35;;;;;;;14.55;7.43;;;;;;;16.39;65.59;102140.19;4972717;28;20134;-73
2022/05/21 11:09:07;;;;;;;13.75;7.65;;;;;;;16.51;69.26;102136.94;4976936;28;20440;-74
2022/05/21 11:12:00;;;;;;;15.68;8.55;;;;;;;16.61;68.21;102144.19;4989717;28;20033;-73
2022/05/21 11:14:44;;;;;;;16.92;8.95;;;;;;;16.65;67.92;102143.34;4988470;28;20030;-73
2022/05/21 11:17:30;;;;;;;12.45;8.02;;;;;;;16.70;69.40;102148.72;4986858;28;20033;-73
2022/05/21 11:20:02;;;;;;;16.30;8.77;;;;;;;16.78;70.61;102141.84;4992532;28;20049;-73
2022/05/21 11:22:40;;;;;;;17.83;9.50;;;;;;;16.79;66.90;102151.53;4990284;28;20485;-69
2022/05/21 11:25:22;;;;;;;16.30;8.65;;;;;;;16.72;65.02;102147.00;4984763;28;20034;-72
2022/05/21 11:28:21;;;;;;;14.48;8.35;;;;;;;16.68;65.73;102150.41;4984729;28;20046;-73
2022/05/21 11:30:47;;;;;;;;;;;;;;;16.75;67.46;102136.53;4982213;28;20478;-72
2022/05/21 11:38:55;;;;;;;11.55;6.50;;;;;;;16.94;62.51;102136.91;4989151;28;20118;-72
2022/05/21 11:42:01;;;;;;;13.20;6.43;;;;;;;16.97;65.79;102136.94;4990149;28;20222;-73
2022/05/21 11:47:23;;;;;;;11.73;6.05;;;;;;;16.94;61.91;102136.91;4992081;28;20061;-72
2022/05/21 11:50:13;;;;;;;14.35;6.97;;;;;;;16.96;64.45;102136.06;4991205;28;20079;-73
2022/05/21 11:52:38;;;;;;;;;;;;;;;17.05;65.56;102135.34;4992287;28;20034;-74
2022/05/21 11:55:14;;;;;;;14.30;6.63;;;;;;;17.15;62.19;102132.00;4982014;28;19913;-72
2022/05/21 11:57:56;;;;;;;15.43;6.78;;;;;;;17.20;62.49;102132.97;4987560;28;20110;-72
2022/05/21 12:00:21;;;;;;;11.93;6.15;;;;;;;17.25;64.13;102124.25;4987363;28;20084;-72
2022/05/21 12:03:25;;;;;;;12.20;5.80;;;;;;;17.24;61.16;102130.41;4986390;28;20042;-71
2022/05/21 12:05:47;;;;;;;11.68;4.93;;;;;;;17.23;60.13;102134.75;4986436;28;20684;-71